createdAt,value
2018-07-23T00:00:54.072Z,990.33
2018-07-23T00:01:54.213Z,990.31
2018-07-23T00:02:54.353Z,990.36
2018-07-23T00:03:54.492Z,990.38
2018-07-23T00:04:54.635Z,990.34
2018-07-23T00:05:54.777Z,990.33
2018-07-23T00:06:54.912Z,990.38
2018-07-23T00:07:55.059Z,990.36
2018-07-23T00:08:55.197Z,990.38
2018-07-23T00:09:55.340Z,990.40
2018-07-23T00:10:55.480Z,990.41
2018-07-23T00:11:55.618Z,990.36
2018-07-23T00:12:55.761Z,990.42
2018-07-23T00:13:55.900Z,990.41
2018-07-23T00:14:56.039Z,990.37
2018-07-23T00:15:56.181Z,990.39
2018-07-23T00:16:56.328Z,990.39
2018-07-23T00:17:56.467Z,990.38
2018-07-23T00:18:56.606Z,990.35
2018-07-23T00:19:56.748Z,990.36
2018-07-23T00:20:56.886Z,990.36
2018-07-23T00:21:57.024Z,990.32
2018-07-23T00:22:57.171Z,990.35
2018-07-23T00:23:57.312Z,990.41
2018-07-23T00:24:57.460Z,990.36
2018-07-23T00:25:57.598Z,990.39
2018-07-23T00:26:57.748Z,990.36
2018-07-23T00:27:57.894Z,990.39
2018-07-23T00:28:58.032Z,990.39
2018-07-23T00:29:58.176Z,990.40
2018-07-23T00:30:58.324Z,990.39
2018-07-23T00:31:58.457Z,990.39
2018-07-23T00:32:58.607Z,990.37
2018-07-23T00:33:58.745Z,990.38
2018-07-23T00:34:58.901Z,990.39
2018-07-23T00:35:59.027Z,990.34
2018-07-23T00:36:59.166Z,990.34
2018-07-23T00:37:59.327Z,990.32
2018-07-23T00:38:59.453Z,990.31
2018-07-23T00:39:59.591Z,990.32
2018-07-23T00:40:59.751Z,990.31
2018-07-23T00:41:59.894Z,990.29
2018-07-23T00:43:00.034Z,990.31
2018-07-23T00:44:00.204Z,990.30
2018-07-23T00:45:00.357Z,990.28
2018-07-23T00:46:00.497Z,990.25
2018-07-23T00:47:00.727Z,990.30
2018-07-23T00:48:00.734Z,990.31
2018-07-23T00:49:00.870Z,990.26
2018-07-23T00:50:01.037Z,990.27
2018-07-23T00:51:01.169Z,990.29
2018-07-23T00:52:01.317Z,990.26
2018-07-23T00:53:01.473Z,990.27
2018-07-23T00:54:01.604Z,990.31
2018-07-23T00:55:01.738Z,990.34
2018-07-23T00:56:01.904Z,990.29
2018-07-23T00:57:02.034Z,990.31
2018-07-23T00:58:02.182Z,990.31
2018-07-23T00:59:02.348Z,990.33
2018-07-23T01:00:02.480Z,990.33
2018-07-23T01:01:02.620Z,990.29
2018-07-23T01:02:02.764Z,990.29
2018-07-23T01:03:02.909Z,990.30
2018-07-23T01:04:03.052Z,990.31
2018-07-23T01:05:03.216Z,990.31
2018-07-23T01:06:03.360Z,990.30
2018-07-23T01:07:03.499Z,990.29
2018-07-23T01:08:03.640Z,990.29
2018-07-23T01:09:03.782Z,990.29
2018-07-23T01:10:03.927Z,990.28
2018-07-23T01:11:04.070Z,990.29
2018-07-23T01:12:04.210Z,990.29
2018-07-23T01:13:04.350Z,990.29
2018-07-23T01:14:04.483Z,990.27
2018-07-23T01:15:04.637Z,990.28
2018-07-23T01:16:04.769Z,990.29
2018-07-23T01:17:04.908Z,990.32
2018-07-23T01:18:05.049Z,990.32
2018-07-23T01:19:05.183Z,990.33
2018-07-23T01:20:05.329Z,990.37
2018-07-23T01:21:05.465Z,990.35
2018-07-23T01:22:05.613Z,990.33
2018-07-23T01:23:05.756Z,990.37
2018-07-23T01:24:05.893Z,990.37
2018-07-23T01:25:06.038Z,990.35
2018-07-23T01:26:06.185Z,990.33
2018-07-23T01:27:06.328Z,990.34
2018-07-23T01:28:06.513Z,990.33
2018-07-23T01:29:06.607Z,990.34
2018-07-23T01:30:06.741Z,990.36
2018-07-23T01:31:06.880Z,990.35
2018-07-23T01:32:07.019Z,990.31
2018-07-23T01:33:07.159Z,990.31
2018-07-23T01:34:07.301Z,990.31
2018-07-23T01:35:07.440Z,990.32
2018-07-23T01:36:07.588Z,990.31
2018-07-23T01:37:07.727Z,990.32
2018-07-23T01:38:07.865Z,990.38
2018-07-23T01:39:08.006Z,990.32
2018-07-23T01:40:08.152Z,990.37
2018-07-23T01:41:08.291Z,990.37
2018-07-23T01:42:08.435Z,990.35
2018-07-23T01:43:08.614Z,990.38
2018-07-23T01:44:08.748Z,990.34
2018-07-23T01:45:08.880Z,990.35
2018-07-23T01:46:09.146Z,990.34
2018-07-23T01:47:09.193Z,990.34
2018-07-23T01:48:09.339Z,990.34
2018-07-23T01:49:09.505Z,990.34
2018-07-23T01:50:09.643Z,990.37
2018-07-23T01:51:09.787Z,990.36
2018-07-23T01:52:09.945Z,990.38
2018-07-23T01:53:10.084Z,990.37
2018-07-23T01:54:10.224Z,990.35
2018-07-23T01:55:10.383Z,990.37
2018-07-23T01:56:10.524Z,990.39
2018-07-23T01:57:10.665Z,990.36
2018-07-23T01:58:10.817Z,990.39
2018-07-23T01:59:10.950Z,990.40
2018-07-23T02:00:11.085Z,990.39
2018-07-23T02:01:11.241Z,990.37
2018-07-23T02:02:11.372Z,990.34
2018-07-23T02:03:11.520Z,990.39
2018-07-23T02:04:11.682Z,990.36
2018-07-23T02:05:11.817Z,990.36
2018-07-23T02:06:11.963Z,990.34
2018-07-23T02:07:12.170Z,990.38
2018-07-23T02:08:12.181Z,990.32
2018-07-23T02:09:12.318Z,990.30
2018-07-23T02:10:12.453Z,990.34
2018-07-23T02:11:12.617Z,990.28
2018-07-23T02:12:12.755Z,990.32
2018-07-23T02:13:12.905Z,990.30
2018-07-23T02:14:13.046Z,990.32
2018-07-23T02:15:13.187Z,990.32
2018-07-23T02:16:13.340Z,990.35
2018-07-23T02:17:13.477Z,990.34
2018-07-23T02:18:13.646Z,990.38
2018-07-23T02:19:13.780Z,990.39
2018-07-23T02:20:13.900Z,990.37
2018-07-23T02:21:14.042Z,990.37
2018-07-23T02:22:14.178Z,990.37
2018-07-23T02:23:14.326Z,990.42
2018-07-23T02:24:14.456Z,990.39
2018-07-23T02:25:14.599Z,990.44
2018-07-23T02:26:14.734Z,990.46
2018-07-23T02:27:14.881Z,990.43
2018-07-23T02:28:15.059Z,990.44
2018-07-23T02:29:15.165Z,990.48
2018-07-23T02:30:15.305Z,990.49
2018-07-23T02:31:15.451Z,990.49
2018-07-23T02:32:15.593Z,990.50
2018-07-23T02:33:15.739Z,990.47
2018-07-23T02:34:15.880Z,990.50
2018-07-23T02:35:16.026Z,990.50
2018-07-23T02:36:16.167Z,990.48
2018-07-23T02:37:16.303Z,990.50
2018-07-23T02:38:16.441Z,990.50
2018-07-23T02:39:16.574Z,990.48
2018-07-23T02:40:16.716Z,990.48
2018-07-23T02:41:16.858Z,990.49
2018-07-23T02:42:16.997Z,990.50
2018-07-23T02:43:17.139Z,990.51
2018-07-23T02:44:17.282Z,990.53
2018-07-23T02:45:17.419Z,990.54
2018-07-23T02:46:17.554Z,990.55
2018-07-23T02:47:17.696Z,990.53
2018-07-23T02:48:17.839Z,990.54
2018-07-23T02:49:17.975Z,990.59
2018-07-23T02:50:18.112Z,990.55
2018-07-23T02:51:18.264Z,990.59
2018-07-23T02:52:18.400Z,990.59
2018-07-23T02:53:18.540Z,990.61
2018-07-23T02:54:18.700Z,990.60
2018-07-23T02:55:18.837Z,990.63
2018-07-23T02:56:18.972Z,990.64
2018-07-23T02:57:19.115Z,990.66
2018-07-23T02:58:19.254Z,990.67
2018-07-23T02:59:19.390Z,990.69
2018-07-23T03:00:19.546Z,990.69
2018-07-23T03:01:19.680Z,990.70
2018-07-23T03:02:19.819Z,990.73
2018-07-23T03:03:19.981Z,990.69
2018-07-23T03:04:20.111Z,990.70
2018-07-23T03:05:20.258Z,990.71
2018-07-23T03:06:20.397Z,990.66
2018-07-23T03:07:20.532Z,990.66
2018-07-23T03:08:20.673Z,990.66
2018-07-23T03:09:20.827Z,990.67
2018-07-23T03:10:20.966Z,990.67
2018-07-23T03:11:21.103Z,990.66
2018-07-23T03:12:21.262Z,990.66
2018-07-23T03:13:21.398Z,990.67
2018-07-23T03:14:21.536Z,990.72
2018-07-23T03:15:21.673Z,990.71
2018-07-23T03:16:21.806Z,990.71
2018-07-23T03:17:21.951Z,990.74
2018-07-23T03:18:22.103Z,990.74
2018-07-23T03:19:22.253Z,990.73
2018-07-23T03:20:22.379Z,990.71
2018-07-23T03:21:22.526Z,990.68
2018-07-23T03:22:22.675Z,990.68
2018-07-23T03:23:22.813Z,990.67
2018-07-23T03:24:22.955Z,990.73
2018-07-23T03:25:23.094Z,990.70
2018-07-23T03:26:23.230Z,990.72
2018-07-23T03:27:23.381Z,990.71
2018-07-23T03:28:23.505Z,990.73
2018-07-23T03:29:23.648Z,990.69
2018-07-23T03:30:23.857Z,990.72
2018-07-23T03:31:23.948Z,990.72
2018-07-23T03:32:24.088Z,990.72
2018-07-23T03:33:24.244Z,990.72
2018-07-23T03:34:24.381Z,990.75
2018-07-23T03:35:24.522Z,990.76
2018-07-23T03:36:24.710Z,990.75
2018-07-23T03:37:24.818Z,990.74
2018-07-23T03:38:24.957Z,990.75
2018-07-23T03:39:25.099Z,990.79
2018-07-23T03:40:25.236Z,990.77
2018-07-23T03:41:25.366Z,990.82
2018-07-23T03:42:25.508Z,990.85
2018-07-23T03:43:25.654Z,990.90
2018-07-23T03:44:25.800Z,990.89
2018-07-23T03:45:25.923Z,990.90
2018-07-23T03:46:26.065Z,990.88
2018-07-23T03:47:26.245Z,990.87
2018-07-23T03:48:26.389Z,990.89
2018-07-23T03:49:26.534Z,990.89
2018-07-23T03:50:26.676Z,990.84
2018-07-23T03:51:26.815Z,990.88
2018-07-23T03:52:26.954Z,990.91
2018-07-23T03:53:27.093Z,990.94
2018-07-23T03:54:27.235Z,990.92
2018-07-23T03:55:27.379Z,990.92
2018-07-23T03:56:27.518Z,990.93
2018-07-23T03:57:27.671Z,990.93
2018-07-23T03:58:27.816Z,990.90
2018-07-23T03:59:27.956Z,990.94
2018-07-23T04:00:28.101Z,990.94
2018-07-23T04:01:28.241Z,990.94
2018-07-23T04:02:28.845Z,990.90
2018-07-23T04:03:28.533Z,990.93
2018-07-23T04:04:28.663Z,990.91
2018-07-23T04:05:28.817Z,990.91
2018-07-23T04:06:28.982Z,990.92
2018-07-23T04:07:29.101Z,990.92
2018-07-23T04:08:29.238Z,990.91
2018-07-23T04:09:29.383Z,990.95
2018-07-23T04:10:29.526Z,990.96
2018-07-23T04:11:29.660Z,990.95
2018-07-23T04:12:29.801Z,990.94
2018-07-23T04:13:29.992Z,990.94
2018-07-23T04:14:30.102Z,990.97
2018-07-23T04:15:30.242Z,990.94
2018-07-23T04:16:30.401Z,990.97
2018-07-23T04:17:30.589Z,990.96
2018-07-23T04:18:30.684Z,991.00
2018-07-23T04:19:30.821Z,990.95
2018-07-23T04:20:30.954Z,990.99
2018-07-23T04:21:31.090Z,990.96
2018-07-23T04:22:31.231Z,990.99
2018-07-23T04:23:31.364Z,990.99
2018-07-23T04:24:31.511Z,991.04
2018-07-23T04:25:31.660Z,991.08
2018-07-23T04:26:31.790Z,991.06
2018-07-23T04:27:31.928Z,991.09
2018-07-23T04:28:32.853Z,991.07
2018-07-23T04:29:32.197Z,991.10
2018-07-23T04:30:32.336Z,991.07
2018-07-23T04:31:32.485Z,991.09
2018-07-23T04:32:32.626Z,991.13
2018-07-23T04:33:32.772Z,991.13
2018-07-23T04:34:32.925Z,991.10
2018-07-23T04:35:33.065Z,991.15
2018-07-23T04:36:33.202Z,991.09
2018-07-23T04:37:33.342Z,991.13
2018-07-23T04:38:33.485Z,991.14
2018-07-23T04:39:33.635Z,991.14
2018-07-23T04:40:33.769Z,991.14
2018-07-23T04:41:33.908Z,991.14
2018-07-23T04:42:34.064Z,991.12
2018-07-23T04:43:34.203Z,991.16
2018-07-23T04:44:34.336Z,991.16
2018-07-23T04:45:34.485Z,991.17
2018-07-23T04:46:34.617Z,991.17
2018-07-23T04:47:34.817Z,991.16
2018-07-23T04:48:34.910Z,991.19
2018-07-23T04:49:35.031Z,991.20
2018-07-23T04:50:35.221Z,991.20
2018-07-23T04:51:35.327Z,991.21
2018-07-23T04:52:35.449Z,991.24
2018-07-23T04:53:35.600Z,991.21
2018-07-23T04:54:35.739Z,991.23
2018-07-23T04:55:35.886Z,991.24
2018-07-23T04:56:36.154Z,991.26
2018-07-23T04:57:36.185Z,991.26
2018-07-23T04:58:36.324Z,991.26
2018-07-23T04:59:36.487Z,991.31
2018-07-23T05:00:36.623Z,991.33
2018-07-23T05:01:36.756Z,991.32
2018-07-23T05:02:36.916Z,991.34
2018-07-23T05:03:37.047Z,991.35
2018-07-23T05:04:37.189Z,991.36
2018-07-23T05:05:37.326Z,991.36
2018-07-23T05:06:37.464Z,991.38
2018-07-23T05:07:37.604Z,991.41
2018-07-23T05:08:37.784Z,991.41
2018-07-23T05:09:37.894Z,991.37
2018-07-23T05:10:38.014Z,991.37
2018-07-23T05:11:38.167Z,991.36
2018-07-23T05:12:38.310Z,991.38
2018-07-23T05:13:38.503Z,991.35
2018-07-23T05:14:38.665Z,991.33
2018-07-23T05:15:38.804Z,991.37
2018-07-23T05:16:38.948Z,991.35
2018-07-23T05:17:39.090Z,991.34
2018-07-23T05:18:39.228Z,991.36
2018-07-23T05:19:39.367Z,991.37
2018-07-23T05:20:39.508Z,991.38
2018-07-23T05:21:39.650Z,991.36
2018-07-23T05:22:39.792Z,991.33
2018-07-23T05:23:39.930Z,991.33
2018-07-23T05:24:40.069Z,991.37
2018-07-23T05:25:40.211Z,991.36
2018-07-23T05:26:40.365Z,991.37
2018-07-23T05:27:40.510Z,991.35
2018-07-23T05:28:40.638Z,991.35
2018-07-23T05:29:40.799Z,991.33
2018-07-23T05:30:40.926Z,991.34
2018-07-23T05:31:41.094Z,991.31
2018-07-23T05:32:41.261Z,991.32
2018-07-23T05:33:41.380Z,991.33
2018-07-23T05:34:41.512Z,991.32
2018-07-23T05:35:41.650Z,991.32
2018-07-23T05:36:41.784Z,991.37
2018-07-23T05:37:41.923Z,991.37
2018-07-23T05:38:42.071Z,991.35
2018-07-23T05:39:42.204Z,991.33
2018-07-23T05:40:42.355Z,991.35
2018-07-23T05:41:42.500Z,991.33
2018-07-23T05:42:42.629Z,991.34
2018-07-23T05:43:42.767Z,991.35
2018-07-23T05:44:42.928Z,991.32
2018-07-23T05:45:43.055Z,991.37
2018-07-23T05:46:43.196Z,991.36
2018-07-23T05:47:43.346Z,991.36
2018-07-23T05:48:43.488Z,991.37
2018-07-23T05:49:43.623Z,991.35
2018-07-23T05:50:43.764Z,991.41
2018-07-23T05:51:43.905Z,991.36
2018-07-23T05:52:44.047Z,991.35
2018-07-23T05:53:44.200Z,991.34
2018-07-23T05:54:44.341Z,991.38
2018-07-23T05:55:44.487Z,991.38
2018-07-23T05:56:44.633Z,991.36
2018-07-23T05:57:44.798Z,991.38
2018-07-23T05:58:44.934Z,991.41
2018-07-23T05:59:45.048Z,991.38
2018-07-23T06:00:45.185Z,991.39
2018-07-23T06:01:45.323Z,991.43
2018-07-23T06:02:45.485Z,991.41
2018-07-23T06:03:45.673Z,991.44
2018-07-23T06:04:45.756Z,991.44
2018-07-23T06:05:45.903Z,991.44
2018-07-23T06:06:46.093Z,991.43
2018-07-23T06:07:46.181Z,991.46
2018-07-23T06:08:46.323Z,991.45
2018-07-23T06:09:46.459Z,991.43
2018-07-23T06:10:46.606Z,991.47
2018-07-23T06:11:46.739Z,991.45
2018-07-23T06:12:46.950Z,991.46
2018-07-23T06:13:46.964Z,991.46
2018-07-23T06:14:47.108Z,991.47
2018-07-23T06:15:47.249Z,991.46
2018-07-23T06:16:47.386Z,991.52
2018-07-23T06:17:47.520Z,991.49
2018-07-23T06:18:47.668Z,991.48
2018-07-23T06:19:47.805Z,991.48
2018-07-23T06:20:47.946Z,991.49
2018-07-23T06:21:48.085Z,991.46
2018-07-23T06:22:48.231Z,991.50
2018-07-23T06:23:48.381Z,991.50
2018-07-23T06:24:48.525Z,991.52
2018-07-23T06:25:48.744Z,991.53
2018-07-23T06:26:48.803Z,991.51
2018-07-23T06:27:48.951Z,991.52
2018-07-23T06:28:49.084Z,991.51
2018-07-23T06:29:49.222Z,991.53
2018-07-23T06:30:49.386Z,991.58
2018-07-23T06:31:49.515Z,991.55
2018-07-23T06:32:49.655Z,991.50
2018-07-23T06:33:49.796Z,991.53
2018-07-23T06:34:49.936Z,991.48
2018-07-23T06:35:50.072Z,991.49
2018-07-23T06:36:50.213Z,991.53
2018-07-23T06:37:50.359Z,991.48
2018-07-23T06:38:50.502Z,991.53
2018-07-23T06:39:50.642Z,991.52
2018-07-23T06:40:50.790Z,991.56
2018-07-23T06:41:50.975Z,991.55
2018-07-23T06:42:51.079Z,991.54
2018-07-23T06:43:51.222Z,991.57
2018-07-23T06:44:51.362Z,991.59
2018-07-23T06:45:51.518Z,991.56
2018-07-23T06:46:51.657Z,991.57
2018-07-23T06:47:51.793Z,991.57
2018-07-23T06:48:51.930Z,991.56
2018-07-23T06:49:52.074Z,991.56
2018-07-23T06:50:52.209Z,991.55
2018-07-23T06:51:52.372Z,991.55
2018-07-23T06:52:52.502Z,991.61
2018-07-23T06:53:52.651Z,991.59
2018-07-23T06:54:52.797Z,991.60
2018-07-23T06:55:52.928Z,991.59
2018-07-23T06:56:53.076Z,991.62
2018-07-23T06:57:53.232Z,991.62
2018-07-23T06:58:53.365Z,991.62
2018-07-23T06:59:53.501Z,991.63
2018-07-23T07:00:53.646Z,991.61
2018-07-23T07:01:53.789Z,991.61
2018-07-23T07:02:53.946Z,991.62
2018-07-23T07:03:54.084Z,991.63
2018-07-23T07:04:54.230Z,991.62
2018-07-23T07:05:54.389Z,991.62
2018-07-23T07:06:54.525Z,991.64
2018-07-23T07:07:54.663Z,991.67
2018-07-23T07:08:54.806Z,991.66
2018-07-23T07:09:54.947Z,991.59
2018-07-23T07:10:55.137Z,991.62
2018-07-23T07:11:55.228Z,991.60
2018-07-23T07:12:55.364Z,991.62
2018-07-23T07:13:55.508Z,991.59
2018-07-23T07:14:55.665Z,991.62
2018-07-23T07:15:55.789Z,991.64
2018-07-23T07:16:55.927Z,991.60
2018-07-23T07:17:56.097Z,991.61
2018-07-23T07:18:56.192Z,991.64
2018-07-23T07:19:56.399Z,991.64
2018-07-23T07:20:56.498Z,991.66
2018-07-23T07:21:56.692Z,991.64
2018-07-23T07:22:56.772Z,991.62
2018-07-23T07:23:56.937Z,991.65
2018-07-23T07:24:57.067Z,991.66
2018-07-23T07:25:57.204Z,991.64
2018-07-23T07:26:57.359Z,991.63
2018-07-23T07:27:57.497Z,991.64
2018-07-23T07:28:57.629Z,991.62
2018-07-23T07:29:57.779Z,991.63
2018-07-23T07:30:57.924Z,991.63
2018-07-23T07:31:58.062Z,991.62
2018-07-23T07:32:58.205Z,991.62
2018-07-23T07:33:58.347Z,991.64
2018-07-23T07:34:58.491Z,991.63
2018-07-23T07:35:58.636Z,991.65
2018-07-23T07:36:58.779Z,991.62
2018-07-23T07:37:58.982Z,991.65
2018-07-23T07:38:59.063Z,991.63
2018-07-23T07:39:59.205Z,991.65
2018-07-23T07:40:59.349Z,991.60
2018-07-23T07:41:59.490Z,991.66
2018-07-23T07:42:59.629Z,991.64
2018-07-23T07:43:59.766Z,991.64
2018-07-23T07:44:59.911Z,991.64
2018-07-23T07:46:00.067Z,991.63
2018-07-23T07:47:00.207Z,991.63
2018-07-23T07:48:00.353Z,991.61
2018-07-23T07:49:00.493Z,991.61
2018-07-23T07:50:00.643Z,991.58
2018-07-23T07:51:00.771Z,991.62
2018-07-23T07:52:00.915Z,991.59
2018-07-23T07:53:01.053Z,991.59
2018-07-23T07:54:01.191Z,991.58
2018-07-23T07:55:01.337Z,991.59
2018-07-23T07:56:01.474Z,991.57
2018-07-23T07:57:01.619Z,991.58
2018-07-23T07:58:01.761Z,991.55
2018-07-23T07:59:01.893Z,991.60
2018-07-23T08:00:02.039Z,991.58
2018-07-23T08:01:02.174Z,991.59
2018-07-23T08:02:02.366Z,991.58
2018-07-23T08:03:02.505Z,991.58
2018-07-23T08:04:02.651Z,991.58
2018-07-23T08:05:02.808Z,991.55
2018-07-23T08:06:02.976Z,991.53
2018-07-23T08:07:03.092Z,991.55
2018-07-23T08:08:03.224Z,991.54
2018-07-23T08:09:03.355Z,991.52
2018-07-23T08:10:03.503Z,991.51
2018-07-23T08:11:03.643Z,991.52
2018-07-23T08:12:03.785Z,991.56
2018-07-23T08:13:03.930Z,991.57
2018-07-23T08:14:04.064Z,991.53
2018-07-23T08:15:04.207Z,991.57
2018-07-23T08:16:04.364Z,991.54
2018-07-23T08:17:04.490Z,991.58
2018-07-23T08:18:04.656Z,991.55
2018-07-23T08:19:04.799Z,991.55
2018-07-23T08:20:04.975Z,991.59
2018-07-23T08:21:05.112Z,991.56
2018-07-23T08:22:05.256Z,991.55
2018-07-23T08:23:05.406Z,991.52
2018-07-23T08:24:05.563Z,991.53
2018-07-23T08:25:05.728Z,991.50
2018-07-23T08:26:05.863Z,991.52
2018-07-23T08:27:06.008Z,991.53
2018-07-23T08:28:06.154Z,991.54
2018-07-23T08:29:06.476Z,991.52
2018-07-23T08:30:06.383Z,991.54
2018-07-23T08:31:06.527Z,991.51
2018-07-23T08:32:06.810Z,991.49
2018-07-23T08:33:06.833Z,991.55
2018-07-23T08:34:06.963Z,991.52
2018-07-23T08:35:07.119Z,991.52
2018-07-23T08:36:07.246Z,991.53
2018-07-23T08:37:07.416Z,991.51
2018-07-23T08:38:07.570Z,991.54
2018-07-23T08:39:07.688Z,991.52
2018-07-23T08:40:07.823Z,991.48
2018-07-23T08:41:07.976Z,991.51
2018-07-23T08:42:08.113Z,991.49
2018-07-23T08:43:08.316Z,991.54
2018-07-23T08:44:08.427Z,991.52
2018-07-23T08:45:08.557Z,991.50
2018-07-23T08:46:08.709Z,991.48
2018-07-23T08:47:08.887Z,991.50
2018-07-23T08:48:09.051Z,991.52
2018-07-23T08:49:09.193Z,991.50
2018-07-23T08:50:09.352Z,991.49
2018-07-23T08:51:09.494Z,991.52
2018-07-23T08:52:09.635Z,991.48
2018-07-23T08:53:09.774Z,991.50
2018-07-23T08:54:09.912Z,991.47
2018-07-23T08:55:10.056Z,991.48
2018-07-23T08:56:10.249Z,991.49
2018-07-23T08:57:10.354Z,991.49
2018-07-23T08:58:10.491Z,991.47
2018-07-23T08:59:10.619Z,991.43
2018-07-23T09:00:10.780Z,991.46
2018-07-23T09:01:10.927Z,991.43
2018-07-23T09:02:11.077Z,991.42
2018-07-23T09:03:11.243Z,991.45
2018-07-23T09:04:11.357Z,991.43
2018-07-23T09:05:11.512Z,991.38
2018-07-23T09:06:11.658Z,991.36
2018-07-23T09:07:11.801Z,991.40
2018-07-23T09:08:11.943Z,991.44
2018-07-23T09:09:12.079Z,991.42
2018-07-23T09:10:12.226Z,991.41
2018-07-23T09:11:12.370Z,991.45
2018-07-23T09:12:12.516Z,991.39
2018-07-23T09:13:12.664Z,991.40
2018-07-23T09:14:12.806Z,991.44
2018-07-23T09:15:12.954Z,991.42
2018-07-23T09:16:13.100Z,991.41
2018-07-23T09:17:13.251Z,991.36
2018-07-23T09:18:13.381Z,991.38
2018-07-23T09:19:13.524Z,991.38
2018-07-23T09:20:13.664Z,991.36
2018-07-23T09:21:13.813Z,991.39
2018-07-23T09:22:13.960Z,991.40
2018-07-23T09:23:14.098Z,991.37
2018-07-23T09:24:14.235Z,991.38
2018-07-23T09:25:14.380Z,991.37
2018-07-23T09:26:14.524Z,991.37
2018-07-23T09:27:14.674Z,991.34
2018-07-23T09:28:14.825Z,991.39
2018-07-23T09:29:14.956Z,991.35
2018-07-23T09:30:15.141Z,991.37
2018-07-23T09:31:15.246Z,991.34
2018-07-23T09:32:15.388Z,991.34
2018-07-23T09:33:15.530Z,991.34
2018-07-23T09:34:15.671Z,991.37
2018-07-23T09:35:15.828Z,991.31
2018-07-23T09:36:15.970Z,991.30
2018-07-23T09:37:16.128Z,991.28
2018-07-23T09:38:16.260Z,991.34
2018-07-23T09:39:16.400Z,991.31
2018-07-23T09:40:16.548Z,991.31
2018-07-23T09:41:16.688Z,991.32
2018-07-23T09:42:16.828Z,991.30
2018-07-23T09:43:16.967Z,991.33
2018-07-23T09:44:17.136Z,991.32
2018-07-23T09:45:17.282Z,991.33
2018-07-23T09:46:17.436Z,991.32
2018-07-23T09:47:17.579Z,991.26
2018-07-23T09:48:17.728Z,991.31
2018-07-23T09:49:17.868Z,991.27
2018-07-23T09:50:18.013Z,991.29
2018-07-23T09:51:18.156Z,991.27
2018-07-23T09:52:18.305Z,991.22
2018-07-23T09:53:18.442Z,991.23
2018-07-23T09:54:18.582Z,991.24
2018-07-23T09:55:18.725Z,991.24
2018-07-23T09:56:18.869Z,991.24
2018-07-23T09:57:19.029Z,991.18
2018-07-23T09:58:19.167Z,991.21
2018-07-23T09:59:19.309Z,991.15
2018-07-23T10:00:19.554Z,991.15
2018-07-23T10:01:19.633Z,991.16
2018-07-23T10:02:19.788Z,991.22
2018-07-23T10:03:19.970Z,991.18
2018-07-23T10:04:20.088Z,991.21
2018-07-23T10:05:20.225Z,991.21
2018-07-23T10:06:20.387Z,991.19
2018-07-23T10:07:20.593Z,991.24
2018-07-23T10:08:20.660Z,991.22
2018-07-23T10:09:20.816Z,991.16
2018-07-23T10:10:20.961Z,991.18
2018-07-23T10:11:21.103Z,991.18
2018-07-23T10:12:21.378Z,991.15
2018-07-23T10:13:21.370Z,991.20
2018-07-23T10:14:21.524Z,991.20
2018-07-23T10:15:21.674Z,991.20
2018-07-23T10:16:21.811Z,991.20
2018-07-23T10:17:21.958Z,991.17
2018-07-23T10:18:22.122Z,991.16
2018-07-23T10:19:22.261Z,991.18
2018-07-23T10:20:22.405Z,991.16
2018-07-23T10:21:22.565Z,991.13
2018-07-23T10:22:22.720Z,991.17
2018-07-23T10:23:22.855Z,991.12
2018-07-23T10:24:22.995Z,991.13
2018-07-23T10:25:23.141Z,991.12
2018-07-23T10:26:23.285Z,991.16
2018-07-23T10:27:23.442Z,991.08
2018-07-23T10:28:23.576Z,991.12
2018-07-23T10:29:23.758Z,991.11
2018-07-23T10:30:23.892Z,991.07
2018-07-23T10:31:24.027Z,991.13
2018-07-23T10:32:24.183Z,991.06
2018-07-23T10:33:24.316Z,991.07
2018-07-23T10:34:24.473Z,991.06
2018-07-23T10:35:24.605Z,991.01
2018-07-23T10:36:24.765Z,991.02
2018-07-23T10:37:24.897Z,991.01
2018-07-23T10:38:25.047Z,991.02
2018-07-23T10:39:25.204Z,991.02
2018-07-23T10:40:25.338Z,990.99
2018-07-23T10:41:25.524Z,991.02
2018-07-23T10:42:25.610Z,991.02
2018-07-23T10:43:25.756Z,991.01
2018-07-23T10:44:25.895Z,990.97
2018-07-23T10:45:26.038Z,990.96
2018-07-23T10:46:26.187Z,990.99
2018-07-23T10:47:26.329Z,991.00
2018-07-23T10:48:26.481Z,990.96
2018-07-23T10:49:26.619Z,990.97
2018-07-23T10:50:26.761Z,990.94
2018-07-23T10:51:26.908Z,990.94
2018-07-23T10:52:27.052Z,990.95
2018-07-23T10:53:27.204Z,990.94
2018-07-23T10:54:27.367Z,990.92
2018-07-23T10:55:27.497Z,990.96
2018-07-23T10:56:27.642Z,990.92
2018-07-23T10:57:27.793Z,990.91
2018-07-23T10:58:27.942Z,990.92
2018-07-23T10:59:28.088Z,990.93
2018-07-23T11:00:28.289Z,990.91
2018-07-23T11:01:28.380Z,990.89
2018-07-23T11:02:28.525Z,990.89
2018-07-23T11:03:28.664Z,990.88
2018-07-23T11:04:28.797Z,990.85
2018-07-23T11:05:28.959Z,990.88
2018-07-23T11:06:29.093Z,990.91
2018-07-23T11:07:29.241Z,990.90
2018-07-23T11:08:29.385Z,990.84
2018-07-23T11:09:29.523Z,990.87
2018-07-23T11:10:29.669Z,990.83
2018-07-23T11:11:29.812Z,990.83
2018-07-23T11:12:29.962Z,990.78
2018-07-23T11:13:30.114Z,990.84
2018-07-23T11:14:30.245Z,990.86
2018-07-23T11:15:30.385Z,990.91
2018-07-23T11:16:30.588Z,990.91
2018-07-23T11:17:30.730Z,990.92
2018-07-23T11:18:30.872Z,990.92
2018-07-23T11:19:31.035Z,990.95
2018-07-23T11:20:31.187Z,990.97
2018-07-23T11:21:31.352Z,990.90
2018-07-23T11:22:31.494Z,990.96
2018-07-23T11:23:31.631Z,990.92
2018-07-23T11:24:31.786Z,990.95
2018-07-23T11:25:39.948Z,990.94
2018-07-23T11:26:32.104Z,990.92
2018-07-23T11:27:32.221Z,990.92
2018-07-23T11:28:32.360Z,990.88
2018-07-23T11:29:32.539Z,990.91
2018-07-23T11:30:32.666Z,990.93
2018-07-23T11:31:32.817Z,990.88
2018-07-23T11:32:32.971Z,990.89
2018-07-23T11:33:33.108Z,990.92
2018-07-23T11:34:33.255Z,990.92
2018-07-23T11:35:33.427Z,990.90
2018-07-23T11:36:33.638Z,990.92
2018-07-23T11:37:33.722Z,990.96
2018-07-23T11:38:33.885Z,990.97
2018-07-23T11:39:34.043Z,991.00
2018-07-23T11:40:34.141Z,990.92
2018-07-23T11:41:34.355Z,990.91
2018-07-23T11:42:34.432Z,990.95
2018-07-23T11:43:34.581Z,990.97
2018-07-23T11:44:34.757Z,990.89
2018-07-23T11:45:34.893Z,991.04
2018-07-23T11:46:35.031Z,990.97
2018-07-23T11:47:35.256Z,990.87
2018-07-23T11:48:35.338Z,990.94
2018-07-23T11:49:35.482Z,990.90
2018-07-23T11:50:35.640Z,990.91
2018-07-23T11:51:35.776Z,990.95
2018-07-23T11:52:35.926Z,990.93
2018-07-23T11:53:36.121Z,990.87
2018-07-23T11:54:36.222Z,990.97
2018-07-23T11:55:36.373Z,990.95
2018-07-23T11:56:36.561Z,990.96
2018-07-23T11:57:36.686Z,990.86
2018-07-23T11:58:36.828Z,990.89
2018-07-23T11:59:36.994Z,990.92
2018-07-23T12:00:37.134Z,991.00
2018-07-23T12:01:37.280Z,990.92
2018-07-23T12:02:37.415Z,990.93
2018-07-23T12:03:37.571Z,990.95
2018-07-23T12:04:37.849Z,990.95
2018-07-23T12:05:37.873Z,991.00
2018-07-23T12:06:38.022Z,991.02
2018-07-23T12:07:38.166Z,990.89
2018-07-23T12:08:38.339Z,990.90
2018-07-23T12:09:38.497Z,990.95
2018-07-23T12:10:38.645Z,990.84
2018-07-23T12:11:38.785Z,990.90
2018-07-23T12:12:38.937Z,990.89
2018-07-23T12:13:39.084Z,990.93
2018-07-23T12:14:39.228Z,990.93
2018-07-23T12:15:39.372Z,990.89
2018-07-23T12:16:39.520Z,990.85
2018-07-23T12:17:39.697Z,990.78
2018-07-23T12:18:39.829Z,990.83
2018-07-23T12:19:39.973Z,990.80
2018-07-23T12:20:40.135Z,990.84
2018-07-23T12:21:40.275Z,990.89
2018-07-23T12:22:40.416Z,990.88
2018-07-23T12:23:40.571Z,990.95
2018-07-23T12:24:40.717Z,990.91
2018-07-23T12:25:40.863Z,990.88
2018-07-23T12:26:41.012Z,990.85
2018-07-23T12:27:41.152Z,990.82
2018-07-23T12:28:41.299Z,990.77
2018-07-23T12:29:41.452Z,990.78
2018-07-23T12:30:41.614Z,990.74